Time;durP1;ratioP1;P1;durP2;ratioP2;P2;SDS_P1;SDS_P2;PMS_P1;PMS_P2;Temp;Humidity;BMP_temperature;BMP_pressure;BME280_temperature;BME280_humidity;BME280_pressure;Samples;Min_cycle;Max_cycle;Signal;HPM_P1;HPM_P2
2022/04/09 00:00:01;;;;;;;14.40;7.83;;;6.50;99.90;;;;;;5133918;27;20652;-68
2022/04/09 00:02:28;;;;;;;12.97;7.90;;;6.50;99.90;;;;;;5133748;27;20205;-67
2022/04/09 00:04:55;;;;;;;16.33;8.60;;;6.40;99.90;;;;;;5133624;27;20693;-68
2022/04/09 00:07:22;;;;;;;16.13;8.97;;;6.40;99.90;;;;;;5133757;27;20667;-70
2022/04/09 00:09:49;;;;;;;19.27;9.70;;;6.30;99.90;;;;;;5133702;27;20632;-67
2022/04/09 00:12:16;;;;;;;19.50;10.50;;;6.30;99.90;;;;;;5133725;27;20629;-68
2022/04/09 00:14:43;;;;;;;19.53;10.87;;;6.20;99.90;;;;;;5132569;27;20305;-68
2022/04/09 00:17:11;;;;;;;20.63;11.23;;;6.10;99.90;;;;;;5133281;27;20238;-68
2022/04/09 00:19:38;;;;;;;18.60;10.53;;;6.00;99.90;;;;;;5133505;27;20285;-67
2022/04/09 00:22:05;;;;;;;21.00;11.57;;;6.00;99.90;;;;;;5133337;27;20241;-68
2022/04/09 00:24:32;;;;;;;23.03;10.97;;;5.90;99.90;;;;;;5132963;27;20249;-68
2022/04/09 00:26:59;;;;;;;22.30;13.20;;;5.90;99.90;;;;;;5133137;27;20310;-69
2022/04/09 00:29:26;;;;;;;18.10;10.87;;;5.90;99.90;;;;;;5133287;27;20674;-68
2022/04/09 00:31:52;;;;;;;17.83;10.70;;;5.90;99.90;;;;;;5133495;27;20294;-66
2022/04/09 00:34:21;;;;;;;18.80;10.03;;;5.90;99.90;;;;;;5132961;27;20254;-68
2022/04/09 00:36:48;;;;;;;14.00;8.43;;;5.90;99.90;;;;;;5133206;27;20321;-68
2022/04/09 00:39:15;;;;;;;13.33;7.57;;;6.00;99.90;;;;;;5133011;27;20206;-67
2022/04/09 00:41:47;;;;;;;10.80;6.47;;;6.00;99.90;;;;;;5132921;27;20301;-67
2022/04/09 00:44:17;;;;;;;11.40;6.40;;;6.10;99.90;;;;;;5133433;27;20614;-67
2022/04/09 00:46:44;;;;;;;10.20;6.13;;;6.10;99.90;;;;;;5133014;27;20206;-67
2022/04/09 00:49:12;;;;;;;11.70;6.10;;;6.20;99.90;;;;;;5133174;27;20702;-67
2022/04/09 00:51:42;;;;;;;10.37;5.60;;;6.20;99.90;;;;;;5133011;27;20285;-68
2022/04/09 00:54:12;;;;;;;10.13;5.57;;;6.30;99.90;;;;;;5133051;27;20238;-68
2022/04/09 00:56:39;;;;;;;12.97;5.73;;;6.40;99.90;;;;;;5132616;27;20281;-68
2022/04/09 00:59:10;;;;;;;12.37;7.00;;;6.40;99.90;;;;;;5132770;28;20237;-67
2022/04/09 01:01:38;;;;;;;10.63;7.30;;;6.40;99.90;;;;;;5132701;28;20267;-67
2022/04/09 01:04:08;;;;;;;15.13;8.83;;;6.40;99.90;;;;;;5132744;28;20245;-68
2022/04/09 01:06:35;;;;;;;16.27;9.40;;;6.40;99.90;;;;;;5132467;28;20237;-67
2022/04/09 01:09:05;;;;;;;17.00;9.63;;;6.40;99.90;;;;;;5132924;28;20241;-67
2022/04/09 01:11:32;;;;;;;13.60;9.60;;;6.40;99.90;;;;;;5132431;28;20242;-68
2022/04/09 01:13:59;;;;;;;16.43;9.87;;;6.40;99.90;;;;;;5132855;28;20634;-68
2022/04/09 01:16:28;;;;;;;16.50;9.50;;;6.50;99.90;;;;;;5132491;28;20245;-68
2022/04/09 01:18:55;;;;;;;14.13;9.10;;;6.40;99.90;;;;;;5132539;27;20252;-67
2022/04/09 01:21:25;;;;;;;13.97;7.97;;;6.50;99.90;;;;;;5132642;27;20237;-68
2022/04/09 01:23:53;;;;;;;14.20;7.10;;;6.50;99.90;;;;;;5132782;28;20683;-67
2022/04/09 01:26:21;;;;;;;13.23;7.57;;;6.60;99.90;;;;;;5133769;27;20234;-68
2022/04/09 01:28:48;;;;;;;11.67;6.57;;;6.60;99.90;;;;;;5136929;27;20255;-67
2022/04/09 01:31:16;;;;;;;15.77;6.93;;;6.60;99.90;;;;;;5136541;27;20659;-67
2022/04/09 01:33:43;;;;;;;12.30;7.97;;;6.70;99.90;;;;;;5136656;27;20234;-66
2022/04/09 01:36:10;;;;;;;16.87;8.23;;;6.70;99.90;;;;;;5136217;27;20321;-68
2022/04/09 01:38:37;;;;;;;15.70;8.80;;;6.80;99.90;;;;;;5136097;27;20199;-67
2022/04/09 01:41:06;;;;;;;16.37;8.63;;;6.80;99.90;;;;;;5136331;27;20215;-69
2022/04/09 01:43:33;;;;;;;14.77;8.57;;;6.90;99.90;;;;;;5136315;27;20206;-68
2022/04/09 01:45:59;;;;;;;12.23;7.17;;;6.90;99.90;;;;;;5136210;27;20287;-69
2022/04/09 01:48:26;;;;;;;12.73;6.87;;;6.90;99.90;;;;;;5136022;27;20234;-67
2022/04/09 01:50:53;;;;;;;9.50;6.07;;;7.00;99.90;;;;;;5136362;27;20238;-68
2022/04/09 01:53:20;;;;;;;9.43;5.20;;;7.00;99.90;;;;;;5136102;27;20260;-67
2022/04/09 01:55:47;;;;;;;8.20;5.33;;;7.10;99.90;;;;;;5135920;27;20226;-69
2022/04/09 01:58:15;;;;;;;10.13;5.23;;;7.10;99.90;;;;;;5136218;27;20238;-66
2022/04/09 02:00:42;;;;;;;12.47;5.50;;;7.10;99.90;;;;;;5136270;27;20238;-68
2022/04/09 02:03:09;;;;;;;8.17;5.40;;;7.10;99.90;;;;;;5136323;27;20656;-69
2022/04/09 02:05:36;;;;;;;9.87;4.80;;;7.20;99.90;;;;;;5136212;27;20256;-69
2022/04/09 02:08:04;;;;;;;9.03;4.80;;;7.20;99.90;;;;;;5135967;27;20271;-68
2022/04/09 02:10:33;;;;;;;10.43;5.17;;;7.20;99.90;;;;;;5136063;27;20297;-68
2022/04/09 02:13:04;;;;;;;9.90;5.43;;;7.20;99.90;;;;;;5136077;27;20202;-69
2022/04/09 02:15:32;;;;;;;9.80;5.33;;;7.20;99.90;;;;;;5135592;27;20219;-70
2022/04/09 02:17:59;;;;;;;11.60;5.57;;;7.20;99.90;;;;;;5135671;27;20234;-68
2022/04/09 02:20:26;;;;;;;9.20;5.50;;;7.10;99.90;;;;;;5135417;27;20289;-68
2022/04/09 02:22:53;;;;;;;9.60;5.30;;;7.20;99.90;;;;;;5135890;27;20206;-67
2022/04/09 02:25:19;;;;;;;10.63;4.73;;;7.10;99.90;;;;;;5135718;27;20278;-67
2022/04/09 02:27:46;;;;;;;9.27;4.50;;;7.10;99.90;;;;;;5135347;27;20305;-67
2022/04/09 02:30:14;;;;;;;8.33;4.57;;;7.10;99.90;;;;;;5135297;27;20203;-69
2022/04/09 02:32:46;;;;;;;6.73;4.23;;;7.00;99.90;;;;;;5135334;27;20207;-68
2022/04/09 02:35:14;;;;;;;7.77;4.10;;;7.00;99.90;;;;;;5135360;27;20257;-68
2022/04/09 02:37:41;;;;;;;9.57;4.60;;;7.10;99.90;;;;;;5134728;27;20613;-67
2022/04/09 02:40:09;;;;;;;7.20;4.40;;;7.10;99.90;;;;;;5135325;27;20234;-68
2022/04/09 02:42:37;;;;;;;6.77;4.23;;;7.20;99.90;;;;;;5135548;27;20237;-67
2022/04/09 02:45:05;;;;;;;6.97;4.00;;;7.20;99.90;;;;;;5135361;27;20205;-68
2022/04/09 02:47:32;;;;;;;8.33;4.50;;;7.20;99.90;;;;;;5135397;27;20209;-68
2022/04/09 02:50:01;;;;;;;8.83;4.73;;;7.30;99.90;;;;;;5135350;27;20233;-68
2022/04/09 02:52:32;;;;;;;6.87;4.23;;;7.30;99.90;;;;;;5135311;27;20467;-68
2022/04/09 02:54:59;;;;;;;6.47;3.83;;;7.30;99.90;;;;;;5135192;27;20293;-67
2022/04/09 02:57:26;;;;;;;6.17;3.63;;;7.40;99.90;;;;;;5134965;27;20198;-68
2022/04/09 02:59:53;;;;;;;6.80;4.07;;;7.40;99.90;;;;;;5135155;27;20664;-68
2022/04/09 03:02:20;;;;;;;6.80;4.23;;;7.40;99.90;;;;;;5135072;27;20289;-67
2022/04/09 03:04:47;;;;;;;6.03;4.10;;;7.50;99.90;;;;;;5135081;27;20230;-68
2022/04/09 03:07:15;;;;;;;7.47;3.93;;;7.50;99.90;;;;;;5134846;27;20298;-67
2022/04/09 03:09:42;;;;;;;7.47;4.30;;;7.60;99.90;;;;;;5134991;27;20833;-68
2022/04/09 03:12:12;;;;;;;6.27;3.70;;;7.50;99.90;;;;;;5134718;27;20725;-69
2022/04/09 03:14:39;;;;;;;8.77;4.30;;;7.50;99.90;;;;;;5134475;27;20249;-68
2022/04/09 03:17:06;;;;;;;7.23;4.10;;;7.60;99.90;;;;;;5134678;27;20563;-67
2022/04/09 03:19:33;;;;;;;6.17;3.97;;;7.60;99.90;;;;;;5134447;27;20245;-68
2022/04/09 03:22:00;;;;;;;5.60;3.87;;;7.50;99.90;;;;;;5134573;27;20230;-67
2022/04/09 03:24:29;;;;;;;8.43;3.90;;;7.50;99.90;;;;;;5134687;27;20624;-67
2022/04/09 03:26:55;;;;;;;8.83;4.43;;;7.50;99.90;;;;;;5134168;27;20229;-68
2022/04/09 03:29:22;;;;;;;7.80;4.43;;;7.40;99.90;;;;;;5134553;27;20293;-68
2022/04/09 03:31:49;;;;;;;7.47;4.37;;;7.40;99.90;;;;;;5134622;27;20246;-68
2022/04/09 03:34:17;;;;;;;7.47;4.23;;;7.50;99.90;;;;;;5133997;27;20199;-67
2022/04/09 03:36:44;;;;;;;6.97;3.77;;;7.60;99.90;;;;;;5133960;27;20277;-69
2022/04/09 03:39:11;;;;;;;7.17;4.00;;;7.60;99.90;;;;;;5134303;27;20238;-68
2022/04/09 03:41:39;;;;;;;8.00;4.27;;;7.70;99.90;;;;;;5134249;27;20199;-68
2022/04/09 03:44:07;;;;;;;8.17;4.07;;;7.80;99.90;;;;;;5133815;27;20238;-68
2022/04/09 03:46:34;;;;;;;7.90;4.17;;;7.80;99.90;;;;;;5134287;27;20638;-67
2022/04/09 03:49:01;;;;;;;6.27;4.13;;;7.80;99.90;;;;;;5133850;27;20256;-67
2022/04/09 03:51:27;;;;;;;6.73;4.07;;;7.90;99.90;;;;;;5134228;27;20754;-67
2022/04/09 03:53:54;;;;;;;7.07;4.50;;;7.90;99.90;;;;;;5133739;27;20289;-67
2022/04/09 03:56:22;;;;;;;7.53;3.90;;;8.00;99.90;;;;;;5134072;27;20656;-67
2022/04/09 03:58:51;;;;;;;8.40;4.20;;;8.00;99.90;;;;;;5133894;27;20618;-67
2022/04/09 04:01:17;;;;;;;7.33;4.47;;;8.10;99.90;;;;;;5133818;27;20230;-68
2022/04/09 04:03:45;;;;;;;6.20;3.60;;;8.10;99.90;;;;;;5133662;27;20206;-67
2022/04/09 04:06:12;;;;;;;7.17;4.20;;;8.10;99.90;;;;;;5133356;27;20194;-68
2022/04/09 04:08:38;;;;;;;7.40;4.43;;;8.10;99.90;;;;;;5134204;27;20207;-68
2022/04/09 04:11:06;;;;;;;7.03;4.50;;;8.10;99.90;;;;;;5133541;27;20290;-68
2022/04/09 04:13:35;;;;;;;8.17;4.57;;;8.10;99.90;;;;;;5133463;27;20206;-67
2022/04/09 04:16:04;;;;;;;6.73;4.37;;;8.10;99.90;;;;;;5133127;27;20233;-68
2022/04/09 04:18:31;;;;;;;9.00;4.40;;;8.10;99.90;;;;;;5133558;27;20604;-69
2022/04/09 04:20:58;;;;;;;8.70;4.40;;;8.10;99.90;;;;;;5133344;27;20242;-68
2022/04/09 04:23:25;;;;;;;7.47;4.30;;;8.10;99.90;;;;;;5133535;27;20237;-68
2022/04/09 04:25:52;;;;;;;7.47;5.00;;;8.10;99.90;;;;;;5132898;27;20238;-67
2022/04/09 04:28:19;;;;;;;8.03;5.13;;;8.20;99.90;;;;;;5133185;27;20234;-69
2022/04/09 04:30:45;;;;;;;7.93;4.80;;;8.20;99.90;;;;;;5132978;27;20241;-67
2022/04/09 04:33:14;;;;;;;6.67;4.50;;;8.30;99.90;;;;;;5132736;27;20285;-69
2022/04/09 04:35:41;;;;;;;8.63;4.67;;;8.30;99.90;;;;;;5132990;27;20321;-67
2022/04/09 04:38:07;;;;;;;7.80;4.30;;;8.30;99.90;;;;;;5132761;27;20278;-68
2022/04/09 04:40:34;;;;;;;9.73;4.50;;;8.40;99.90;;;;;;5132887;27;20293;-67
2022/04/09 04:43:01;;;;;;;7.43;3.93;;;8.40;99.90;;;;;;5132785;27;20305;-68
2022/04/09 04:45:29;;;;;;;7.87;4.00;;;8.40;99.90;;;;;;5133282;27;20679;-68
2022/04/09 04:47:57;;;;;;;6.53;3.77;;;8.40;99.90;;;;;;5132526;27;20213;-68
2022/04/09 04:50:26;;;;;;;5.27;3.70;;;8.40;99.90;;;;;;5132803;27;20255;-68
2022/04/09 04:52:53;;;;;;;6.03;3.53;;;8.40;99.90;;;;;;5132633;27;20230;-67
2022/04/09 04:55:20;;;;;;;8.27;4.00;;;8.40;99.90;;;;;;5132636;27;20290;-67
2022/04/09 04:57:50;;;;;;;10.03;4.20;;;8.40;99.90;;;;;;5132748;27;20621;-68
2022/04/09 05:00:20;;;;;;;10.47;4.90;;;8.40;99.90;;;;;;5132630;27;20611;-68
2022/04/09 05:02:47;;;;;;;7.57;4.00;;;8.40;99.90;;;;;;5132126;28;20660;-68
2022/04/09 05:05:14;;;;;;;8.23;3.73;;;8.30;99.90;;;;;;5132951;28;20257;-68
2022/04/09 05:07:43;;;;;;;7.93;4.00;;;8.30;99.90;;;;;;5132900;28;20625;-68
2022/04/09 05:10:12;;;;;;;9.07;4.30;;;8.30;99.90;;;;;;5132954;28;20218;-67
2022/04/09 05:12:40;;;;;;;7.57;3.83;;;8.20;99.90;;;;;;5132814;27;20674;-68
2022/04/09 05:15:09;;;;;;;7.23;3.63;;;8.20;99.90;;;;;;5132652;27;20290;-67
2022/04/09 05:17:36;;;;;;;5.90;3.87;;;8.20;99.90;;;;;;5132874;27;20264;-67
2022/04/09 05:20:03;;;;;;;5.83;3.60;;;8.20;99.90;;;;;;5132772;28;20294;-66
2022/04/09 05:22:31;;;;;;;6.40;3.93;;;8.20;99.90;;;;;;5132368;28;20298;-68
2022/04/09 05:25:00;;;;;;;8.03;3.83;;;8.30;99.90;;;;;;5132744;27;20645;-68
2022/04/09 05:27:27;;;;;;;8.30;4.10;;;8.30;99.90;;;;;;5132393;27;20250;-69
2022/04/09 05:29:54;;;;;;;6.47;4.20;;;8.30;99.90;;;;;;5132545;28;20205;-67
2022/04/09 05:32:21;;;;;;;6.60;3.80;;;8.30;99.90;;;;;;5132825;28;20297;-69
2022/04/09 05:34:48;;;;;;;5.47;3.57;;;8.30;99.90;;;;;;5132458;28;20230;-69
2022/04/09 05:37:15;;;;;;;5.40;3.50;;;8.40;99.90;;;;;;5132212;28;20238;-68
2022/04/09 05:39:43;;;;;;;6.53;3.30;;;8.40;99.90;;;;;;5132460;28;20606;-68
2022/04/09 05:42:12;;;;;;;6.77;3.63;;;8.40;99.90;;;;;;5132475;28;20217;-67
2022/04/09 05:44:38;;;;;;;5.93;3.57;;;8.50;99.90;;;;;;5132357;28;20294;-68
2022/04/09 05:47:06;;;;;;;5.70;3.73;;;8.50;99.90;;;;;;5132728;28;20234;-68
2022/04/09 05:49:33;;;;;;;5.10;3.63;;;8.50;99.90;;;;;;5132191;28;20238;-68
2022/04/09 05:52:00;;;;;;;6.53;3.67;;;8.60;99.90;;;;;;5132368;28;20686;-69
2022/04/09 05:54:27;;;;;;;6.33;3.80;;;8.60;99.90;;;;;;5132505;27;20290;-68
2022/04/09 05:56:54;;;;;;;6.53;3.93;;;8.60;99.90;;;;;;5131964;28;20219;-67
2022/04/09 05:59:25;;;;;;;5.13;3.80;;;8.60;99.90;;;;;;5132539;27;20203;-69
2022/04/09 06:01:52;;;;;;;5.60;3.43;;;8.70;99.90;;;;;;5132060;28;20224;-67
2022/04/09 06:04:20;;;;;;;7.43;4.33;;;8.80;99.90;;;;;;5132051;27;20245;-68
2022/04/09 06:06:47;;;;;;;7.03;4.07;;;8.80;99.90;;;;;;5131895;27;20194;-68
2022/04/09 06:09:14;;;;;;;5.13;3.80;;;8.80;99.90;;;;;;5132059;28;20298;-68
2022/04/09 06:11:42;;;;;;;7.53;4.50;;;8.80;99.90;;;;;;5131925;27;20279;-68
2022/04/09 06:14:10;;;;;;;6.13;4.20;;;8.80;99.90;;;;;;5134313;27;20670;-66
2022/04/09 06:16:40;;;;;;;8.13;4.40;;;8.80;99.90;;;;;;5135471;27;20254;-67
2022/04/09 06:19:07;;;;;;;8.60;4.30;;;8.80;99.90;;;;;;5135846;27;20276;-69
2022/04/09 06:21:35;;;;;;;7.83;3.93;;;8.80;99.90;;;;;;5135729;27;20289;-69
2022/04/09 06:24:02;;;;;;;7.77;4.73;;;8.90;99.90;;;;;;5135845;27;20272;-68
2022/04/09 06:26:29;;;;;;;5.97;4.13;;;8.90;99.90;;;;;;5135411;27;20218;-69
2022/04/09 06:28:57;;;;;;;8.47;4.50;;;9.00;99.90;;;;;;5135281;27;20245;-69
2022/04/09 06:31:24;;;;;;;7.43;4.63;;;9.00;99.90;;;;;;5135650;27;20238;-69
2022/04/09 06:33:53;;;;;;;7.00;4.10;;;9.10;99.90;;;;;;5135201;27;20238;-68
2022/04/09 06:36:19;;;;;;;6.77;3.80;;;9.20;99.90;;;;;;5135124;27;20235;-68
2022/04/09 06:38:46;;;;;;;8.33;4.20;;;9.30;99.90;;;;;;5135162;27;20297;-68
2022/04/09 06:41:14;;;;;;;8.37;3.90;;;9.30;99.90;;;;;;5135424;27;20327;-68
2022/04/09 06:43:41;;;;;;;8.37;4.60;;;9.40;99.90;;;;;;5135299;27;20205;-68
2022/04/09 06:46:08;;;;;;;6.33;3.80;;;9.50;99.90;;;;;;5135338;27;20225;-69
2022/04/09 06:48:35;;;;;;;6.17;3.97;;;9.60;99.90;;;;;;5135269;27;20242;-70
2022/04/09 06:51:04;;;;;;;7.30;3.50;;;9.60;99.90;;;;;;5134869;27;20293;-67
2022/04/09 06:53:31;;;;;;;8.53;3.50;;;9.70;99.90;;;;;;5135135;27;20207;-69
2022/04/09 06:55:58;;;;;;;7.10;3.77;;;9.80;99.90;;;;;;5134785;27;20211;-70
2022/04/09 06:58:24;;;;;;;5.37;3.60;;;9.80;99.90;;;;;;5134893;27;20222;-69
2022/04/09 07:00:51;;;;;;;6.00;3.20;;;9.90;99.90;;;;;;5135032;27;20293;-67
2022/04/09 07:03:18;;;;;;;6.80;3.67;;;9.90;99.90;;;;;;5135142;27;20257;-68
2022/04/09 07:05:45;;;;;;;5.10;3.47;;;10.00;99.90;;;;;;5134900;27;20234;-68
2022/04/09 07:08:13;;;;;;;4.97;3.47;;;10.00;99.90;;;;;;5135145;27;20719;-68
2022/04/09 07:10:40;;;;;;;7.63;4.03;;;10.00;99.90;;;;;;5134590;27;20294;-66
2022/04/09 07:13:07;;;;;;;9.23;4.10;;;10.10;99.90;;;;;;5134965;27;20617;-67
2022/04/09 07:15:34;;;;;;;6.23;3.80;;;10.10;99.90;;;;;;5134516;27;20234;-66
2022/04/09 07:18:02;;;;;;;7.33;4.03;;;10.20;99.90;;;;;;5134390;27;20223;-67
2022/04/09 07:20:29;;;;;;;8.67;4.17;;;10.30;99.90;;;;;;5134203;27;20226;-68
2022/04/09 07:22:56;;;;;;;6.23;3.50;;;10.40;99.90;;;;;;5134781;27;20328;-68
2022/04/09 07:25:24;;;;;;;7.07;4.00;;;10.50;99.90;;;;;;5133968;27;20636;-68
2022/04/09 07:27:51;;;;;;;8.37;4.13;;;10.60;99.90;;;;;;5134073;27;20249;-68
2022/04/09 07:30:19;;;;;;;9.67;4.77;;;10.70;99.90;;;;;;5134433;27;20202;-68
2022/04/09 07:32:48;;;;;;;9.37;5.47;;;10.80;99.90;;;;;;5134352;27;20233;-67
2022/04/09 07:35:15;;;;;;;8.73;4.60;;;10.80;99.90;;;;;;5134455;27;20697;-68
2022/04/09 07:37:45;;;;;;;6.93;3.93;;;10.80;99.90;;;;;;5133770;27;20273;-67
2022/04/09 07:40:13;;;;;;;6.33;3.23;;;10.80;99.90;;;;;;5133938;27;20239;-68
2022/04/09 07:42:43;;;;;;;5.53;3.23;;;10.90;99.90;;;;;;5133816;27;20289;-68
2022/04/09 07:45:11;;;;;;;5.27;2.97;;;11.00;99.90;;;;;;5134162;27;20230;-69
2022/04/09 07:47:38;;;;;;;4.13;2.40;;;11.00;99.90;;;;;;5133816;27;20241;-69
2022/04/09 07:50:09;;;;;;;4.60;2.67;;;11.10;99.90;;;;;;5133730;27;20242;-68
2022/04/09 07:52:36;;;;;;;3.97;2.50;;;11.10;99.90;;;;;;5133724;27;20190;-68
2022/04/09 07:55:03;;;;;;;5.67;2.63;;;11.20;99.90;;;;;;5133552;27;20599;-68
2022/04/09 07:57:30;;;;;;;3.60;2.33;;;11.20;99.90;;;;;;5133459;27;20314;-68
2022/04/09 07:59:59;;;;;;;5.80;2.97;;;11.20;99.90;;;;;;5133879;27;20242;-68
2022/04/09 08:02:26;;;;;;;4.13;2.33;;;11.30;99.90;;;;;;5133333;27;20245;-68
2022/04/09 08:04:53;;;;;;;3.80;2.10;;;11.30;99.90;;;;;;5133654;27;20294;-68
2022/04/09 08:07:20;;;;;;;5.33;2.27;;;11.40;99.90;;;;;;5133481;27;20290;-68
2022/04/09 08:09:47;;;;;;;4.60;2.10;;;11.40;99.90;;;;;;5133692;27;20645;-68
2022/04/09 08:12:15;;;;;;;2.40;2.00;;;11.50;99.90;;;;;;5133587;27;20231;-69
2022/04/09 08:14:42;;;;;;;6.13;2.30;;;11.50;99.90;;;;;;5133398;27;20199;-68
2022/04/09 08:17:11;;;;;;;6.40;2.10;;;11.50;99.90;;;;;;5133511;27;20260;-68
2022/04/09 08:19:38;;;;;;;5.67;2.27;;;11.50;99.90;;;;;;5133432;27;20426;-69
2022/04/09 08:22:05;;;;;;;4.63;2.30;;;11.60;99.90;;;;;;5133199;27;20206;-68
2022/04/09 08:24:33;;;;;;;3.30;2.27;;;11.50;99.90;;;;;;5133376;27;20625;-68
2022/04/09 08:27:00;;;;;;;4.30;2.23;;;11.50;99.90;;;;;;5132949;27;20246;-68
2022/04/09 08:29:28;;;;;;;4.50;2.40;;;11.50;99.90;;;;;;5133239;27;20202;-69
2022/04/09 08:31:54;;;;;;;6.13;3.20;;;11.60;99.90;;;;;;5133106;27;20240;-69
2022/04/09 08:34:24;;;;;;;3.00;2.10;;;11.60;99.90;;;;;;5132889;27;20238;-69
2022/04/09 08:36:51;;;;;;;4.20;2.60;;;11.60;99.90;;;;;;5132074;27;20665;-68
2022/04/09 08:39:17;;;;;;;4.83;2.40;;;11.70;99.90;;;;;;5133170;27;20245;-69
2022/04/09 08:41:45;;;;;;;3.77;2.40;;;11.70;99.90;;;;;;5132951;27;20211;-69
2022/04/09 08:44:12;;;;;;;4.43;2.60;;;11.70;99.90;;;;;;5133207;27;20202;-68
2022/04/09 08:46:40;;;;;;;4.97;2.50;;;11.70;99.90;;;;;;5133052;27;20264;-68
2022/04/09 08:49:08;;;;;;;5.13;2.50;;;11.70;99.90;;;;;;5133031;27;20471;-67
2022/04/09 08:51:37;;;;;;;5.47;2.20;;;11.70;99.90;;;;;;5132588;27;20289;-68
2022/04/09 08:54:05;;;;;;;5.60;2.27;;;11.70;99.90;;;;;;5133121;27;20640;-68
2022/04/09 08:56:33;;;;;;;8.80;4.70;;;11.70;99.90;;;;;;5132368;27;20206;-68
2022/04/09 08:59:01;;;;;;;5.30;2.90;;;11.80;99.90;;;;;;5133083;27;20241;-67
2022/04/09 09:01:29;;;;;;;8.27;2.97;;;11.80;99.90;;;;;;5132556;28;20249;-68
2022/04/09 09:03:58;;;;;;;3.87;2.57;;;11.80;99.90;;;;;;5132647;28;20202;-69
2022/04/09 09:06:27;;;;;;;5.03;2.13;;;11.80;99.90;;;;;;5132881;28;20615;-67
2022/04/09 09:08:56;;;;;;;5.57;2.40;;;11.80;99.90;;;;;;5132568;28;20255;-69
2022/04/09 09:11:23;;;;;;;4.47;2.43;;;11.80;99.90;;;;;;5132908;27;20289;-68
2022/04/09 09:13:52;;;;;;;6.03;2.93;;;11.80;99.90;;;;;;5132761;27;20626;-69
2022/04/09 09:16:25;;;;;;;5.77;2.73;;;11.80;99.90;;;;;;5132310;28;20199;-68
2022/04/09 09:18:53;;;;;;;4.03;2.10;;;11.80;99.90;;;;;;5132722;28;20273;-68
2022/04/09 09:21:23;;;;;;;4.20;2.70;;;11.80;99.90;;;;;;5132546;27;20640;-69
2022/04/09 09:23:51;;;;;;;3.93;2.20;;;11.80;99.90;;;;;;5132421;28;20187;-69
2022/04/09 09:26:24;;;;;;;8.50;2.70;;;11.70;99.90;;;;;;5132621;27;20226;-67
2022/04/09 09:28:56;;;;;;;4.27;2.60;;;11.80;99.90;;;;;;5132941;27;20532;-68
2022/04/09 09:31:41;;;;;;;5.80;2.73;;;11.80;99.90;;;;;;5132355;27;20203;-67
2022/04/09 09:34:26;;;;;;;5.07;2.73;;;11.80;99.90;;;;;;5129542;28;20215;-69
2022/04/09 09:37:05;;;;;;;5.73;2.90;;;11.80;99.90;;;;;;5131871;27;20249;-69
2022/04/09 09:39:44;;;;;;;5.03;2.63;;;11.90;99.90;;;;;;5130895;28;20207;-68
2022/04/09 09:42:32;;;;;;;5.57;2.90;;;12.00;99.90;;;;;;5097946;28;20266;-69
2022/04/09 09:45:11;;;;;;;6.00;2.93;;;12.00;99.90;;;;;;5096006;28;20203;-67
2022/04/09 09:47:57;;;;;;;7.07;3.20;;;12.10;99.90;;;;;;5097988;27;20209;-68
2022/04/09 09:50:47;;;;;;;10.83;7.27;;;12.30;99.90;;;;;;5130832;27;20205;-68
2022/04/09 09:53:33;;;;;;;20.13;12.53;;;12.40;99.90;;;;;;5101658;27;20241;-69
2022/04/09 09:59:09;;;;;;;9.00;4.00;;;12.50;99.90;;;;;;5135958;27;20307;-70
2022/04/09 10:01:42;;;;;;;7.27;3.27;;;12.60;99.90;;;;;;5133054;27;20658;-68
2022/04/09 10:04:12;;;;;;;7.33;3.40;;;12.60;99.90;;;;;;5150532;27;20206;-68
2022/04/09 10:06:42;;;;;;;6.57;3.90;;;12.60;99.90;;;;;;5135959;27;20623;-69
2022/04/09 10:09:10;;;;;;;10.77;4.97;;;12.70;99.90;;;;;;5136221;27;20554;-68
2022/04/09 10:11:42;;;;;;;10.63;4.97;;;12.70;99.90;;;;;;5135821;27;20199;-67
2022/04/09 10:14:11;;;;;;;9.70;4.70;;;12.70;99.90;;;;;;5136253;27;20283;-68
2022/04/09 10:16:38;;;;;;;8.43;3.80;;;12.70;99.90;;;;;;5135856;27;20213;-69
2022/04/09 10:19:06;;;;;;;10.03;3.73;;;12.80;99.90;;;;;;5135474;27;20218;-68
2022/04/09 10:21:34;;;;;;;7.67;3.57;;;12.80;99.90;;;;;;5135931;27;20203;-69
2022/04/09 10:24:03;;;;;;;4.67;3.17;;;12.70;99.90;;;;;;5135863;27;20585;-70
2022/04/09 10:26:31;;;;;;;7.20;3.67;;;12.70;99.90;;;;;;5135370;27;20310;-68
2022/04/09 10:29:06;;;;;;;16.23;5.80;;;12.70;99.90;;;;;;5135919;27;20198;-69
2022/04/09 10:31:38;;;;;;;13.63;6.50;;;12.70;99.90;;;;;;5135813;27;20191;-67
2022/04/09 10:34:07;;;;;;;14.43;6.33;;;12.80;99.90;;;;;;5135152;27;20191;-68
2022/04/09 10:37:04;;;;;;;24.23;6.13;;;12.80;99.90;;;;;;5135368;27;20237;-69
2022/04/09 10:39:42;;;;;;;9.63;3.97;;;12.80;99.90;;;;;;5135974;27;20274;-69
2022/04/09 10:42:10;;;;;;;8.53;3.57;;;12.70;99.90;;;;;;5135415;27;20190;-69
2022/04/09 10:44:53;;;;;;;7.37;3.80;;;12.70;99.90;;;;;;5135288;27;20651;-69
2022/04/09 10:47:22;;;;;;;9.23;4.50;;;12.50;99.90;;;;;;5134948;27;20194;-67
2022/04/09 10:50:11;;;;;;;9.13;4.67;;;12.50;99.90;;;;;;5135533;27;20217;-69
2022/04/09 10:52:39;;;;;;;8.67;4.57;;;12.50;99.90;;;;;;5135062;27;20203;-69
2022/04/09 10:55:23;;;;;;;9.20;4.37;;;12.40;99.90;;;;;;5134737;27;20228;-67
2022/04/09 10:57:52;;;;;;;6.90;4.03;;;12.40;99.90;;;;;;5134883;27;20214;-69
2022/04/09 11:00:30;;;;;;;8.27;4.10;;;12.40;99.90;;;;;;5133789;27;20215;-68
2022/04/09 11:03:16;;;;;;;8.60;5.10;;;12.40;99.90;;;;;;5134942;27;20570;-68
2022/04/09 11:05:44;;;;;;;7.70;4.23;;;12.40;99.90;;;;;;5135056;27;20187;-69
2022/04/09 11:08:14;;;;;;;8.90;4.30;;;12.40;99.90;;;;;;5134882;27;20231;-68
2022/04/09 11:10:43;;;;;;;6.17;3.67;;;12.40;99.90;;;;;;5135204;27;20183;-69
2022/04/09 11:13:12;;;;;;;7.60;4.07;;;12.50;99.90;;;;;;5134719;27;20210;-69
2022/04/09 11:15:40;;;;;;;7.93;4.10;;;12.60;99.90;;;;;;5134899;27;20206;-68
2022/04/09 11:18:09;;;;;;;7.23;4.10;;;12.60;99.90;;;;;;5134640;27;20245;-68
2022/04/09 11:20:37;;;;;;;8.40;3.83;;;12.60;99.90;;;;;;5134858;27;20803;-69
2022/04/09 11:23:12;;;;;;;7.97;3.80;;;12.70;99.90;;;;;;5134527;27;20566;-68
2022/04/09 11:25:43;;;;;;;7.07;4.00;;;12.70;99.90;;;;;;5134642;27;20591;-69
2022/04/09 11:28:14;;;;;;;8.87;4.57;;;12.70;99.90;;;;;;5134532;27;20615;-70
2022/04/09 11:30:53;;;;;;;7.67;4.60;;;12.70;99.90;;;;;;5134678;27;20687;-68
2022/04/09 11:33:22;;;;;;;11.30;5.50;;;12.70;99.90;;;;;;5134635;27;20517;-67
2022/04/09 11:35:49;;;;;;;8.37;4.87;;;12.70;99.90;;;;;;5133976;27;20244;-68
2022/04/09 11:38:16;;;;;;;10.50;5.67;;;12.70;99.90;;;;;;5133953;27;20229;-70
2022/04/09 11:40:47;;;;;;;10.47;5.63;;;12.70;99.90;;;;;;5134623;27;20202;-69
2022/04/09 11:43:14;;;;;;;12.77;6.13;;;12.70;99.90;;;;;;5133717;27;20191;-67
2022/04/09 11:45:42;;;;;;;16.17;6.17;;;12.60;99.90;;;;;;5134374;27;20659;-68
2022/04/09 11:48:15;;;;;;;9.17;5.63;;;12.60;99.90;;;;;;5133777;27;20234;-68
2022/04/09 11:50:44;;;;;;;11.17;5.97;;;12.60;99.90;;;;;;5134138;27;20187;-68
2022/04/09 11:53:11;;;;;;;13.30;6.40;;;12.60;99.90;;;;;;5133604;27;20241;-69
2022/04/09 11:55:38;;;;;;;10.50;6.13;;;12.60;99.90;;;;;;5133671;27;20199;-67
2022/04/09 11:58:06;;;;;;;11.30;5.93;;;12.70;99.90;;;;;;5133966;27;20276;-68
2022/04/09 12:00:36;;;;;;;12.67;5.37;;;12.70;99.90;;;;;;5134099;27;20662;-69
2022/04/09 12:03:04;;;;;;;10.57;5.80;;;12.70;99.90;;;;;;5133762;27;20579;-69
2022/04/09 12:05:37;;;;;;;9.83;5.90;;;12.80;99.90;;;;;;5133867;27;20860;-70
2022/04/09 12:08:07;;;;;;;12.37;6.27;;;12.70;99.90;;;;;;5133296;27;20190;-70
2022/04/09 12:10:34;;;;;;;15.50;7.27;;;12.80;99.90;;;;;;5133788;27;20682;-69
2022/04/09 12:13:03;;;;;;;11.83;6.50;;;12.90;99.90;;;;;;5133240;27;20209;-67
2022/04/09 12:15:32;;;;;;;15.20;7.27;;;13.00;99.90;;;;;;5133727;27;20621;-70
2022/04/09 12:17:59;;;;;;;10.93;6.50;;;13.00;99.90;;;;;;5133413;27;20725;-69
2022/04/09 12:20:30;;;;;;;11.10;6.40;;;13.20;99.90;;;;;;5133526;27;20252;-68
2022/04/09 12:22:57;;;;;;;16.43;7.70;;;13.40;99.90;;;;;;5133043;27;20238;-69
2022/04/09 12:25:35;;;;;;;10.70;5.93;;;13.40;99.90;;;;;;5133150;27;20314;-67
2022/04/09 12:28:03;;;;;;;11.43;5.47;;;13.50;99.90;;;;;;5132966;27;20218;-67
2022/04/09 12:30:41;;;;;;;10.83;5.13;;;13.60;99.90;;;;;;5133427;27;20206;-68
2022/04/09 12:33:10;;;;;;;12.07;5.30;;;13.60;99.90;;;;;;5133259;27;20212;-69
2022/04/09 12:35:37;;;;;;;10.77;5.00;;;13.70;99.90;;;;;;5133122;27;20239;-68
2022/04/09 12:38:04;;;;;;;11.23;4.60;;;13.80;99.90;;;;;;5132653;27;20330;-69
2022/04/09 12:40:34;;;;;;;9.10;4.73;;;13.80;99.90;;;;;;5133242;27;20635;-67
2022/04/09 12:43:03;;;;;;;9.90;5.20;;;13.80;99.90;;;;;;5132697;27;20241;-68
2022/04/09 12:45:30;;;;;;;7.60;4.67;;;13.70;99.90;;;;;;5133230;27;20259;-68
2022/04/09 12:47:59;;;;;;;7.10;4.70;;;13.80;99.90;;;;;;5132745;27;20249;-68
2022/04/09 12:50:28;;;;;;;11.40;5.17;;;13.80;99.90;;;;;;5133058;27;20206;-67
2022/04/09 12:52:56;;;;;;;8.63;5.27;;;13.90;99.90;;;;;;5132551;27;20198;-68
2022/04/09 12:55:25;;;;;;;10.83;5.63;;;14.00;99.90;;;;;;5132911;27;20263;-68
2022/04/09 12:57:54;;;;;;;12.20;5.80;;;14.00;99.90;;;;;;5132753;27;20286;-68